Time;durP1;ratioP1;P1;durP2;ratioP2;P2;SDS_P1;SDS_P2;PMS_P1;PMS_P2;Temp;Humidity;BMP_temperature;BMP_pressure;BME280_temperature;BME280_humidity;BME280_pressure;Samples;Min_cycle;Max_cycle;Signal;HPM_P1;HPM_P2
2021/10/08 00:00:25;;;;;;;;;;;;;;;-144.99;95.63;52370.63;5039477;28;20021;-75
2021/10/08 00:02:51;;;;;;;;;;;;;;;-144.99;95.71;52441.97;5051689;28;20498;-75
2021/10/08 00:05:18;;;;;;;;;;;;;;;-144.99;95.90;52407.31;5051957;28;19989;-74
2021/10/08 00:07:44;;;;;;;;;;;;;;;-144.99;95.99;52382.88;5051879;28;19997;-74
2021/10/08 00:10:10;;;;;;;;;;;;;;;-144.99;96.00;52391.03;5052124;28;19982;-74
2021/10/08 00:12:37;;;;;;;;;;;;;;;-144.99;95.87;52419.56;5051145;28;20398;-74
2021/10/08 00:15:03;;;;;;;;;;;;;;;-144.99;96.25;52386.94;5051224;28;20059;-74
2021/10/08 00:17:31;;;;;;;;;;;;;;;-144.99;96.12;52399.19;5051269;28;19997;-74
2021/10/08 00:19:57;;;;;;;;;;;;;;;-144.99;95.94;52386.94;5051211;28;19977;-74
2021/10/08 00:22:23;;;;;;;;;;;;;;;-144.99;95.84;52382.88;5051190;28;19985;-74
2021/10/08 00:24:50;;;;;;;;;;;;;;;-144.99;95.93;52350.25;5045244;28;20067;-75
2021/10/08 00:27:16;;;;;;;;;;;;;;;-144.99;96.18;52395.09;5050827;28;20532;-75
2021/10/08 00:29:43;;;;;;;;;;;;;;;-144.99;96.26;52427.72;5051199;28;20012;-75
2021/10/08 00:32:09;;;;;;;;;;;;;;;-144.99;96.40;52395.09;5051791;28;20049;-76
2021/10/08 00:34:37;;;;;;;;;;;;;;;-144.99;96.29;52388.97;5050723;28;19993;-78
2021/10/08 00:37:03;;;;;;;;;;;;;;;-144.99;96.16;52444.03;5050780;28;20009;-75
2021/10/08 00:39:29;;;;;;;;;;;;;;;-144.99;95.83;52444.03;5050554;28;19989;-74
2021/10/08 00:41:59;;;;;;;;;;;;;;;-144.99;95.80;52395.09;5051212;28;20439;-75
2021/10/08 00:44:25;;;;;;;;;;;;;;;-144.99;95.73;52415.47;5050985;28;19981;-76
2021/10/08 00:46:51;;;;;;;;;;;;;;;-144.99;95.88;52423.63;5051194;28;20020;-75
2021/10/08 00:49:18;;;;;;;;;;;;;;;-144.99;96.00;52407.31;5052868;28;20316;-75
2021/10/08 00:51:45;;;;;;;;;;;;;;;-144.99;95.89;52448.09;5052113;28;19981;-75
2021/10/08 00:54:12;;;;;;;;;;;;;;;-144.99;96.02;52425.66;5050610;28;20374;-76
2021/10/08 00:56:39;;;;;;;;;;;;;;;-144.99;96.31;52403.25;5050715;28;20108;-76
2021/10/08 00:59:06;;;;;;;;;;;;;;;-144.99;96.33;52419.56;5050629;28;19981;-76
2021/10/08 01:01:33;;;;;;;;;;;;;;;-144.99;96.22;52419.56;5049559;28;19977;-76
2021/10/08 01:03:59;;;;;;;;;;;;;;;-144.99;96.07;52444.03;5049066;28;20443;-77
2021/10/08 01:06:25;;;;;;;;;;;;;;;-144.99;96.04;52415.47;5050004;28;20000;-77
2021/10/08 01:08:54;;;;;;;;;;;;;;;-144.99;95.97;52407.31;5050125;28;19981;-76
2021/10/08 01:11:20;;;;;;;;;;;;;;;-144.99;95.88;52399.19;5049257;28;19977;-76
2021/10/08 01:13:46;;;;;;;;;;;;;;;-144.99;95.72;52415.47;5044063;28;19984;-76
2021/10/08 01:16:13;;;;;;;;;;;;;;;-144.99;95.57;52386.94;5049342;28;19997;-75
2021/10/08 01:18:39;;;;;;;;;;;;;;;-144.99;95.51;52407.31;5049510;28;20457;-75
2021/10/08 01:21:07;;;;;;;;;;;;;;;-144.99;95.35;52403.25;5049712;28;19969;-76
2021/10/08 01:23:33;;;;;;;;;;;;;;;-144.99;95.28;52431.78;5049428;28;20027;-75
2021/10/08 01:25:59;;;;;;;;;;;;;;;-144.99;95.62;52407.31;5049741;28;20024;-75
2021/10/08 01:28:25;;;;;;;;;;;;;;;-144.99;95.72;52444.03;5050038;28;19981;-76
2021/10/08 01:30:52;;;;;;;;;;;;;;;-144.99;95.79;52456.25;5049819;28;20335;-75
2021/10/08 01:33:18;;;;;;;;;;;;;;;-144.99;95.63;52407.31;5050025;28;20035;-76
2021/10/08 01:35:44;;;;;;;;;;;;;;;-144.99;95.63;52403.25;5049534;28;20455;-76
2021/10/08 01:38:12;;;;;;;;;;;;;;;-144.99;95.77;52431.78;5049895;28;19988;-76
2021/10/08 01:40:54;;;;;;;;;;;;;;;-144.99;95.91;52419.56;5106529;27;19977;-60
2021/10/08 01:43:21;;;;;;;;;;;;;;;-144.99;96.45;52411.41;5103268;28;20429;-61
2021/10/08 01:45:47;;;;;;;;;;;;;;;-144.99;96.82;52413.44;5086315;28;20409;-60
2021/10/08 01:48:13;;;;;;;;;;;;;;;-144.99;97.06;52374.72;5080082;28;20078;-60
2021/10/08 01:50:40;;;;;;;;;;;;;;;-144.99;97.25;52427.72;5096907;28;19973;-60
2021/10/08 01:53:07;;;;;;;;;;;;;;;-144.99;97.16;52421.59;5085716;28;19996;-61
2021/10/08 01:55:34;;;;;;;;;;;;;;;-144.99;97.44;52444.03;5086579;28;19977;-61
2021/10/08 01:58:01;;;;;;;;;;;;;;;-144.99;97.62;52431.78;5086388;28;19981;-62
2021/10/08 02:00:28;;;;;;;;;;;;;;;-144.99;97.71;52433.81;5085892;28;19997;-62
2021/10/08 02:02:54;;;;;;;;;;;;;;;-144.99;97.38;52399.19;5085965;28;20006;-61
2021/10/08 02:05:20;;;;;;;;;;;;;;;-144.99;97.72;52391.03;5086097;28;19981;-61
2021/10/08 02:07:47;;;;;;;;;;;;;;;-144.99;97.79;52378.78;5085594;28;19981;-61
2021/10/08 02:10:14;;;;;;;;;;;;;;;-144.99;97.83;52399.19;5085402;28;20062;-61
2021/10/08 02:12:40;;;;;;;;;;;;;;;-144.99;97.77;52435.88;5085522;28;20077;-61
2021/10/08 02:15:08;;;;;;;;;;;;;;;-144.99;97.81;52446.06;5085599;28;20003;-60
2021/10/08 02:17:35;;;;;;;;;;;;;;;-144.99;97.82;52399.19;5095652;28;19999;-60
2021/10/08 02:20:01;;;;;;;;;;;;;;;-144.99;98.21;52460.31;5105746;28;19996;-61
2021/10/08 02:22:27;;;;;;;;;;;;;;;-144.99;98.38;52423.63;5089233;28;20226;-61
2021/10/08 02:24:54;;;;;;;;;;;;;;;-144.99;98.38;52411.41;5083482;28;20056;-60
2021/10/08 02:27:20;;;;;;;;;;;;;;;-144.99;98.79;52446.06;5085126;28;20035;-60
2021/10/08 02:29:46;;;;;;;;;;;;;;;-144.99;98.72;52419.56;5085466;28;20241;-60
2021/10/08 02:32:14;;;;;;;;;;;;;;;-144.99;98.77;52403.25;5085213;28;20004;-60
2021/10/08 02:34:40;;;;;;;;;;;;;;;-144.99;98.59;52399.19;5084904;28;20361;-62
2021/10/08 02:37:07;;;;;;;;;;;;;;;-144.99;98.49;52374.72;5085112;28;20356;-62
2021/10/08 02:39:33;;;;;;;;;;;;;;;-144.99;98.49;52407.31;5094528;28;20368;-62
2021/10/08 02:42:01;;;;;;;;;;;;;;;-144.99;99.06;52439.94;5105758;28;20000;-62
2021/10/08 02:44:27;;;;;;;;;;;;;;;-144.99;99.01;52423.63;5105371;28;20002;-62
2021/10/08 02:46:54;;;;;;;;;;;;;;;-144.99;98.89;52444.03;5105523;28;19977;-62
2021/10/08 02:49:22;;;;;;;;;;;;;;;-144.99;99.06;52411.41;5105558;28;19988;-62
2021/10/08 02:51:49;;;;;;;;;;;;;;;-144.99;99.36;52399.19;5094135;28;20179;-62
2021/10/08 02:54:15;;;;;;;;;;;;;;;-144.99;99.48;52423.63;5091957;28;19988;-61
2021/10/08 02:56:42;;;;;;;;;;;;;;;-144.99;99.47;52358.41;5091220;28;20480;-61
2021/10/08 02:59:08;;;;;;;;;;;;;;;-144.99;99.28;52488.84;5105523;28;20079;-61
2021/10/08 03:01:34;;;;;;;;;;;;;;;-144.99;99.06;52399.19;5099990;28;20353;-62
2021/10/08 03:04:03;;;;;;;;;;;;;;;-144.99;99.25;52427.72;5091131;28;19984;-62
2021/10/08 03:06:31;;;;;;;;;;;;;;;-144.99;99.50;52415.47;5091531;28;19984;-62
2021/10/08 03:08:57;;;;;;;;;;;;;;;-144.99;99.29;52435.88;5091603;28;20071;-62
2021/10/08 03:11:24;;;;;;;;;;;;;;;-144.99;99.09;52419.56;5091193;28;20004;-61
2021/10/08 03:13:50;;;;;;;;;;;;;;;-144.99;99.01;52415.47;5090918;28;20428;-58
2021/10/08 03:16:16;;;;;;;;;;;;;;;-144.99;99.01;52415.47;5090860;28;20348;-59
2021/10/08 03:18:43;;;;;;;;;;;;;;;-144.99;98.92;52427.72;5091284;28;20427;-59
2021/10/08 03:21:09;;;;;;;;;;;;;;;-144.99;99.01;52399.19;5090812;28;20000;-58
2021/10/08 03:23:37;;;;;;;;;;;;;;;-144.99;99.32;52415.47;5091075;28;19980;-59
2021/10/08 03:26:03;;;;;;;;;;;;;;;-144.99;99.39;52435.88;5090895;28;20011;-59
2021/10/08 03:28:30;;;;;;;;;;;;;;;-144.99;99.66;52395.09;5091304;28;19980;-59
2021/10/08 03:30:56;;;;;;;;;;;;;;;-144.99;99.65;52444.03;5090809;28;19980;-59
2021/10/08 03:33:23;;;;;;;;;;;;;;;-144.99;99.41;52431.78;5090732;28;20418;-59
2021/10/08 03:35:49;;;;;;;;;;;;;;;-144.99;99.19;52439.94;5090358;28;19980;-59
2021/10/08 03:38:17;;;;;;;;;;;;;;;-144.99;99.15;52439.94;5091196;28;20083;-59
2021/10/08 03:40:50;;;;;;;;;;;;;;;-144.99;99.15;52429.75;5090794;28;20380;-59
2021/10/08 03:43:16;;;;;;;;;;;;;;;-144.99;98.98;52391.03;5091046;28;19992;-60
2021/10/08 03:45:50;;;;;;;;;;;;;;;-144.99;98.94;52391.03;5111681;28;19987;-60
2021/10/08 03:51:01;;;;;;;;;;;;;;;-144.99;98.82;52444.03;5097429;28;20169;-61
2021/10/08 03:53:27;;;;;;;;;;;;;;;-144.99;98.64;52423.63;5089985;28;19987;-61
2021/10/08 03:55:55;;;;;;;;;;;;;;;-144.99;98.49;52409.38;5102461;28;20433;-60
2021/10/08 03:58:22;;;;;;;;;;;;;;;-144.99;98.38;52435.88;5110960;28;20057;-60
2021/10/08 04:00:48;;;;;;;;;;;;;;;-144.99;98.59;52399.19;5103916;28;19999;-66
2021/10/08 04:03:15;;;;;;;;;;;;;;;-144.99;98.77;52439.94;5089322;28;20340;-67
2021/10/08 04:05:42;;;;;;;;;;;;;;;-144.99;98.60;52409.38;5090204;28;19981;-66
2021/10/08 04:08:08;;;;;;;;;;;;;;;-144.99;98.89;52386.94;5101435;28;20382;-66
2021/10/08 04:10:34;;;;;;;;;;;;;;;-144.99;99.12;52427.72;5104841;28;20428;-66
2021/10/08 04:13:02;;;;;;;;;;;;;;;-144.99;99.92;52446.06;5089801;28;20015;-68
2021/10/08 04:15:28;;;;;;;;;;;;;;;-144.99;100.00;52437.91;5095828;28;20124;-69
2021/10/08 04:17:55;;;;;;;;;;;;;;;-144.99;100.00;52403.25;5097785;28;19987;-71
2021/10/08 04:20:21;;;;;;;;;;;;;;;-144.99;100.00;52429.75;5095913;28;20368;-70
2021/10/08 04:22:47;;;;;;;;;;;;;;;-144.99;100.00;52423.63;5091454;28;20249;-70
2021/10/08 04:25:14;;;;;;;;;;;;;;;-144.99;99.83;52427.72;5089937;28;19972;-69
2021/10/08 04:27:40;;;;;;;;;;;;;;;-144.99;99.95;52403.25;5089432;28;19972;-69
2021/10/08 04:30:08;;;;;;;;;;;;;;;-144.99;99.62;52431.78;5090260;28;19963;-68
2021/10/08 04:32:35;;;;;;;;;;;;;;;-144.99;99.67;52380.84;5089662;28;19997;-71
2021/10/08 04:35:01;;;;;;;;;;;;;;;-144.99;99.46;52444.03;5089898;28;19977;-70
2021/10/08 04:37:27;;;;;;;;;;;;;;;-144.99;99.11;52456.25;5090395;28;20527;-68
2021/10/08 04:39:54;;;;;;;;;;;;;;;-144.99;98.99;52452.16;5110541;22;20008;-62
2021/10/08 04:42:20;;;;;;;;;;;;;;;-144.99;99.00;52427.72;4989779;28;20401;-64
2021/10/08 04:44:46;;;;;;;;;;;;;;;-144.99;98.82;52439.94;5000139;28;19978;-70
2021/10/08 04:47:14;;;;;;;;;;;;;;;-144.99;98.70;52393.06;4997510;28;19982;-71
2021/10/08 04:49:41;;;;;;;;;;;;;;;-144.99;98.58;52439.94;4991435;28;20022;-70
2021/10/08 04:52:09;;;;;;;;;;;;;;;-144.99;98.52;52391.03;4990781;28;20505;-69
2021/10/08 04:54:37;;;;;;;;;;;;;;;-144.99;98.81;52419.56;4301385;28;10020857;-70
2021/10/08 04:57:04;;;;;;;;;;;;;;;-144.99;98.95;52397.13;4643075;28;10000362;-70
2021/10/08 04:59:30;;;;;;;;;;;;;;;-144.99;99.08;52431.78;4989111;28;19986;-70
2021/10/08 05:01:56;;;;;;;;;;;;;;;-144.99;99.09;52419.56;4988424;28;20170;-70
2021/10/08 05:04:24;;;;;;;;;;;;;;;-144.99;99.21;52435.88;4999991;28;20008;-70
2021/10/08 05:06:50;;;;;;;;;;;;;;;-144.99;98.98;52407.31;4995873;28;20133;-71
2021/10/08 05:09:17;;;;;;;;;;;;;;;-144.99;99.03;52399.19;4987502;28;20439;-70
2021/10/08 05:11:43;;;;;;;;;;;;;;;-144.99;99.08;52423.63;4991918;28;20340;-70
2021/10/08 05:14:10;;;;;;;;;;;;;;;-144.99;99.07;52429.75;4986915;28;20470;-71
2021/10/08 05:16:37;;;;;;;;;;;;;;;-144.99;98.86;52378.78;4987500;28;20025;-70
2021/10/08 05:19:03;;;;;;;;;;;;;;;-144.99;98.95;52407.31;4987546;28;19986;-70
2021/10/08 05:21:31;;;;;;;;;;;;;;;-144.99;98.99;52407.31;4995175;28;20004;-71
2021/10/08 05:24:00;;;;;;;;;;;;;;;-144.99;98.80;52415.47;4991589;28;19982;-71
2021/10/08 05:26:26;;;;;;;;;;;;;;;-144.99;98.71;52378.78;4987531;28;19982;-69
2021/10/08 05:28:53;;;;;;;;;;;;;;;-144.99;98.52;52425.66;4987552;28;19990;-71
2021/10/08 05:31:19;;;;;;;;;;;;;;;-144.99;98.44;52413.44;4988302;28;20024;-70
2021/10/08 05:33:46;;;;;;;;;;;;;;;-144.99;98.35;52427.72;4987517;28;19990;-69
2021/10/08 05:36:12;;;;;;;;;;;;;;;-144.99;98.59;52441.97;4993449;28;19986;-69
2021/10/08 05:38:40;;;;;;;;;;;;;;;-144.99;98.78;52456.25;4987726;28;19986;-70
2021/10/08 05:41:06;;;;;;;;;;;;;;;-144.99;98.79;52411.41;4987288;28;20185;-69
2021/10/08 05:43:32;;;;;;;;;;;;;;;-144.99;98.45;52417.53;4987070;28;19997;-70
2021/10/08 05:45:59;;;;;;;;;;;;;;;-144.99;97.92;52452.16;4987714;28;20462;-71
2021/10/08 05:48:25;;;;;;;;;;;;;;;-144.99;98.05;52415.47;4987985;28;20346;-70
2021/10/08 05:50:51;;;;;;;;;;;;;;;-144.99;98.19;52378.78;4984871;28;20329;-70
2021/10/08 05:53:18;;;;;;;;;;;;;;;-144.99;98.28;52439.94;4992424;28;19997;-70
2021/10/08 05:55:45;;;;;;;;;;;;;;;-144.99;98.61;52403.25;4988425;28;19987;-70
2021/10/08 05:58:12;;;;;;;;;;;;;;;-144.99;98.72;52456.25;4985447;28;20362;-71
2021/10/08 06:00:38;;;;;;;;;;;;;;;-144.99;98.87;52423.63;4987918;28;20084;-70
2021/10/08 06:03:05;;;;;;;;;;;;;;;-144.99;98.91;52448.09;4999056;28;20482;-69
2021/10/08 06:05:34;;;;;;;;;;;;;;;-144.99;98.91;52419.56;4990758;28;19990;-69
2021/10/08 06:08:00;;;;;;;;;;;;;;;-144.99;98.78;52403.25;4987250;28;19982;-70
2021/10/08 06:10:27;;;;;;;;;;;;;;;-144.99;98.39;52439.94;4987594;28;19981;-70
2021/10/08 06:12:55;;;;;;;;;;;;;;;-144.99;98.33;52439.94;4987110;28;19998;-69
2021/10/08 06:15:21;;;;;;;;;;;;;;;-144.99;98.18;52423.63;4986583;28;19982;-70
2021/10/08 06:17:47;;;;;;;;;;;;;;;-144.99;98.11;52409.38;4986410;28;20009;-69
2021/10/08 06:20:14;;;;;;;;;;;;;;;-144.99;97.74;52397.13;4986689;28;20560;-70
2021/10/08 06:22:40;;;;;;;;;;;;;;;-144.99;97.60;52395.09;4986932;28;19998;-70
2021/10/08 06:25:07;;;;;;;;;;;;;;;-144.99;97.76;52448.09;4993651;28;20344;-69
2021/10/08 06:27:34;;;;;;;;;;;;;;;-144.99;97.70;52458.28;4998260;28;19981;-69
2021/10/08 06:30:02;;;;;;;;;;;;;;;-144.99;97.42;52439.94;4991435;28;19994;-70
2021/10/08 06:32:28;;;;;;;;;;;;;;;-144.99;97.30;52399.19;4990414;28;20430;-70
2021/10/08 06:34:55;;;;;;;;;;;;;;;-144.99;97.23;52419.56;4995746;28;19981;-71
2021/10/08 06:37:21;;;;;;;;;;;;;;;-144.99;96.83;52382.88;4997393;28;19993;-70
2021/10/08 06:39:47;;;;;;;;;;;;;;;-144.99;96.64;52403.25;4990980;28;19986;-70
2021/10/08 06:42:15;;;;;;;;;;;;;;;-144.99;96.30;52407.31;4990597;28;20037;-70
2021/10/08 06:44:42;;;;;;;;;;;;;;;-144.99;96.02;52386.94;4998979;28;19982;-71
2021/10/08 06:47:09;;;;;;;;;;;;;;;-144.99;96.00;52378.78;4998048;28;20228;-70
2021/10/08 06:49:36;;;;;;;;;;;;;;;-144.99;95.89;52401.22;4990857;28;19986;-71
2021/10/08 06:52:02;;;;;;;;;;;;;;;-144.99;95.37;52407.31;4990659;28;20428;-70
2021/10/08 06:54:28;;;;;;;;;;;;;;;-144.99;94.87;52358.41;4990199;28;20639;-70
2021/10/08 06:56:55;;;;;;;;;;;;;;;-144.99;94.28;52386.94;4990208;28;19992;-70
2021/10/08 06:59:21;;;;;;;;;;;;;;;-144.99;94.01;52374.72;4991064;28;19983;-69
2021/10/08 07:01:47;;;;;;;;;;;;;;;-144.99;93.78;52415.47;4992207;28;20451;-70
2021/10/08 07:04:15;;;;;;;;;;;;;;;-144.99;92.91;52362.50;5006663;28;20458;-70
2021/10/08 07:06:41;;;;;;;;;;;;;;;-144.99;92.17;52407.31;4998778;28;20335;-70
2021/10/08 07:09:08;;;;;;;;;;;;;;;-144.99;91.38;52378.78;4990970;28;20061;-70
2021/10/08 07:11:34;;;;;;;;;;;;;;;-144.99;90.14;52378.78;4994330;28;19994;-70
2021/10/08 07:14:00;;;;;;;;;;;;;;;-144.99;89.28;52368.59;4989765;28;19983;-70
2021/10/08 07:16:27;;;;;;;;;;;;;;;-144.99;88.88;52374.72;4990274;28;20009;-70
2021/10/08 07:18:54;;;;;;;;;;;;;;;-144.99;88.56;52350.25;4990425;28;20025;-70
2021/10/08 07:21:22;;;;;;;;;;;;;;;-144.99;87.83;52386.94;4996218;28;20002;-69
2021/10/08 07:23:48;;;;;;;;;;;;;;;-144.99;86.76;52370.63;4995139;28;19987;-70
2021/10/08 07:26:16;;;;;;;;;;;;;;;-144.99;85.06;52368.59;4990086;28;19986;-69
2021/10/08 07:28:43;;;;;;;;;;;;;;;-144.99;84.28;52342.09;4989504;28;20275;-71
2021/10/08 07:31:09;;;;;;;;;;;;;;;-144.99;83.38;52325.81;4989640;28;20354;-70
2021/10/08 07:33:36;;;;;;;;;;;;;;;-144.99;82.78;52354.34;4989698;28;20030;-71
2021/10/08 07:36:02;;;;;;;;;;;;;;;-144.99;82.67;52374.72;4996737;28;20029;-70
2021/10/08 07:38:30;;;;;;;;;;;;;;;-144.99;81.85;52342.09;4990057;28;19986;-70
2021/10/08 07:40:56;;;;;;;;;;;;;;;-144.99;81.29;52354.34;4989235;28;19982;-70
2021/10/08 07:43:23;;;;;;;;;;;;;;;-144.99;80.62;52342.09;4989254;28;19982;-72
2021/10/08 07:45:49;;;;;;;;;;;;;;;-144.99;79.79;52325.81;4989659;28;19992;-70
2021/10/08 07:48:15;;;;;;;;;;;;;;;-144.99;79.06;52305.41;4990503;28;20165;-70
2021/10/08 07:50:42;;;;;;;;;;;;;;;-144.99;78.79;52333.94;4988939;28;19990;-70
2021/10/08 07:53:08;;;;;;;;;;;;;;;-144.99;77.45;52333.94;4997215;28;20001;-69
2021/10/08 07:55:36;;;;;;;;;;;;;;;-144.99;76.25;52321.72;4996009;28;20186;-70
2021/10/08 07:58:02;;;;;;;;;;;;;;;-144.99;75.07;52329.88;4989380;28;19995;-69
2021/10/08 08:00:28;;;;;;;;;;;;;;;-144.99;74.96;52333.94;4989840;28;19981;-70
2021/10/08 08:02:55;;;;;;;;;;;;;;;-144.99;74.09;52329.88;5000103;28;19994;-70
2021/10/08 08:05:21;;;;;;;;;;;;;;;-144.99;72.49;52293.19;4993758;28;19986;-71
2021/10/08 08:07:48;;;;;;;;;;;;;;;-144.99;71.84;52319.69;4988741;28;20054;-71
2021/10/08 08:10:15;;;;;;;;;;;;;;;-144.99;71.33;52297.25;4989628;28;19986;-71
2021/10/08 08:12:43;;;;;;;;;;;;;;;-144.99;70.73;52305.41;4988543;28;20005;-70
2021/10/08 08:15:09;;;;;;;;;;;;;;;-144.99;69.77;52264.66;4988697;28;19993;-71
2021/10/08 08:17:36;;;;;;;;;;;;;;;-144.99;69.09;52333.94;4989333;28;19982;-70
2021/10/08 08:20:03;;;;;;;;;;;;;;;-144.99;68.34;52242.22;4988959;28;20539;-71
2021/10/08 08:22:30;;;;;;;;;;;;;;;-144.99;66.54;52297.25;4988122;28;20005;-70
2021/10/08 08:24:56;;;;;;;;;;;;;;;-144.99;66.68;52325.81;4985629;28;19978;-70
2021/10/08 08:27:22;;;;;;;;;;;;;;;-144.99;66.66;52338.03;5003899;28;20028;-69
2021/10/08 08:29:50;;;;;;;;;;;;;;;-144.99;66.24;52293.19;4991582;28;19982;-70
2021/10/08 08:32:17;;;;;;;;;;;;;;;-144.99;65.70;52280.97;4989170;28;20017;-72
2021/10/08 08:34:43;;;;;;;;;;;;;;;-144.99;64.89;52301.34;4992042;28;19978;-70
2021/10/08 08:37:11;;;;;;;;;;;;;;;-144.99;65.00;52256.50;4996746;28;19986;-69
2021/10/08 08:39:39;;;;;;;;;;;;;;;-144.99;64.92;52305.41;4988032;28;19982;-70
2021/10/08 08:42:05;;;;;;;;;;;;;;;-144.99;63.75;52264.66;4987876;28;20280;-70
2021/10/08 08:44:34;;;;;;;;;;;;;;;-144.99;63.25;52305.41;4995024;28;20534;-70
2021/10/08 08:47:01;;;;;;;;;;;;;;;-144.99;62.50;52260.56;4994129;28;19982;-70
2021/10/08 08:49:28;;;;;;;;;;;;;;;-144.99;61.79;52276.88;4988025;28;20030;-66
2021/10/08 08:51:54;;;;;;;;;;;;;;;-144.99;60.81;52236.13;4987807;28;20188;-66
2021/10/08 08:54:21;;;;;;;;;;;;;;;-144.99;59.63;52227.97;4987969;28;20392;-66
2021/10/08 08:56:48;;;;;;;;;;;;;;;-144.99;57.98;52199.44;4980323;28;19986;-66
2021/10/08 08:59:14;;;;;;;;;;;;;;;-144.99;57.04;52227.97;4988306;28;20037;-65
2021/10/08 09:01:55;;;;;;;;;;;;;;;-144.99;56.34;52203.50;4988570;28;20527;-66
2021/10/08 09:04:24;;;;;;;;;;;;;;;-144.99;55.62;52248.34;4998912;28;20470;-65
2021/10/08 09:06:50;;;;;;;;;;;;;;;-144.99;55.19;52248.34;4995990;28;20048;-65
2021/10/08 09:09:18;;;;;;;;;;;;;;;-144.99;54.61;52213.69;4988229;28;19982;-66
2021/10/08 09:11:44;;;;;;;;;;;;;;;-144.99;53.13;52219.81;4991252;28;19998;-66
2021/10/08 09:14:15;;;;;;;;;;;;;;;-144.99;52.99;52179.06;4988310;28;19989;-65
2021/10/08 09:17:04;;;;;;;;;;;;;;;-144.99;52.10;52203.50;4987739;28;19982;-66
2021/10/08 09:19:46;;;;;;;;;;;;;;;-144.99;51.27;52203.50;4988753;28;20587;-67
2021/10/08 09:22:13;;;;;;;;;;;;;;;-144.99;50.63;52195.34;4996006;28;20128;-67
2021/10/08 09:24:39;;;;;;;;;;;;;;;-144.99;49.75;52170.91;4991621;28;19986;-67
2021/10/08 09:27:09;;;;;;;;;;;;;;;-144.99;48.58;52195.34;4985878;28;19974;-67
2021/10/08 09:29:35;;;;;;;;;;;;;;;-144.99;47.71;52158.66;4989428;28;20328;-67
2021/10/08 09:32:02;;;;;;;;;;;;;;;-144.99;47.24;52164.78;4988866;28;20120;-67
2021/10/08 09:34:28;;;;;;;;;;;;;;;-144.99;46.63;52166.81;4989491;28;19989;-66
2021/10/08 09:36:58;;;;;;;;;;;;;;;-144.99;46.61;52152.56;4991979;28;19992;-65
2021/10/08 09:39:28;;;;;;;;;;;;;;;-144.99;45.74;52130.13;4987964;28;20459;-66
2021/10/08 09:41:56;;;;;;;;;;;;;;;-144.99;44.71;52162.75;4987087;28;20001;-66
2021/10/08 09:44:23;;;;;;;;;;;;;;;-144.99;44.66;52134.22;4988742;28;20017;-65
2021/10/08 09:46:49;;;;;;;;;;;;;;;-144.99;43.75;52154.59;4988483;28;20497;-66
2021/10/08 09:49:25;;;;;;;;;;;;;;;-144.99;43.23;52099.56;4988814;28;19985;-66
2021/10/08 09:51:51;;;;;;;;;;;;;;;-144.99;43.04;52150.53;4993633;28;19991;-66
2021/10/08 09:54:19;;;;;;;;;;;;;;;-144.99;42.55;52109.75;4998071;28;19984;-66
2021/10/08 09:56:45;;;;;;;;;;;;;;;-144.99;42.20;52121.97;4986664;28;19988;-66
2021/10/08 09:59:13;;;;;;;;;;;;;;;-144.99;41.78;52077.16;4987207;28;19981;-66
2021/10/08 10:01:41;;;;;;;;;;;;;;;-144.99;41.27;52089.38;4997101;28;20090;-65
2021/10/08 10:04:09;;;;;;;;;;;;;;;-144.99;40.65;52075.09;4998703;28;20032;-66
2021/10/08 10:06:37;;;;;;;;;;;;;;;-144.99;39.92;52093.44;4991255;28;19997;-65
2021/10/08 10:09:04;;;;;;;;;;;;;;;-144.99;39.30;52028.22;4991656;28;20234;-66
2021/10/08 10:11:33;;;;;;;;;;;;;;;-144.99;38.59;52036.38;4991413;28;20047;-65
2021/10/08 10:13:59;;;;;;;;;;;;;;;-144.99;38.51;52018.03;4991010;28;19988;-67
2021/10/08 10:16:26;;;;;;;;;;;;;;;-144.99;38.69;52028.22;4991207;28;19985;-67
2021/10/08 10:18:54;;;;;;;;;;;;;;;-144.99;37.98;52011.94;4991448;28;19980;-67
2021/10/08 10:21:21;;;;;;;;;;;;;;;-144.99;37.69;52003.78;4990330;28;19997;-67
2021/10/08 10:23:50;;;;;;;;;;;;;;;-144.99;37.33;51995.63;4987459;28;19987;-67
2021/10/08 10:26:16;;;;;;;;;;;;;;;-144.99;37.93;51987.47;4995824;28;19977;-67
2021/10/08 10:28:44;;;;;;;;;;;;;;;-144.99;38.04;51952.81;5000099;28;19975;-67
2021/10/08 10:31:12;;;;;;;;;;;;;;;-144.99;37.50;51938.56;4990708;28;19990;-68
2021/10/08 10:33:38;;;;;;;;;;;;;;;-144.99;36.87;51914.09;4990615;28;19984;-68
2021/10/08 10:36:06;;;;;;;;;;;;;;;-144.99;35.51;51899.84;5003703;28;19959;-68
2021/10/08 10:38:35;;;;;;;;;;;;;;;-144.99;35.03;51893.72;4991301;28;19972;-66
2021/10/08 10:41:19;;;;;;;;;;;;;;;-144.99;34.31;51879.47;4990559;28;19961;-66
2021/10/08 10:43:49;;;;;;;;;;;;;;;-144.99;33.57;51857.03;4982067;28;19954;-65
2021/10/08 10:46:27;;;;;;;;;;;;;;;-144.99;33.87;51918.19;5001466;28;20401;-68
2021/10/08 10:49:15;;;;;;;;;;;;;;;-144.99;34.43;51905.97;4990667;28;19973;-68
2021/10/08 10:52:07;;;;;;;;;;;;;;;-144.99;33.97;51926.34;4980905;28;20028;-68
2021/10/08 10:54:49;;;;;;;;;;;;;;;-144.99;33.13;51877.44;4990397;28;19971;-68
2021/10/08 10:57:35;;;;;;;;;;;;;;;-144.99;32.74;51867.22;4981351;28;20331;-69
2021/10/08 11:00:16;;;;;;;;;;;;;;;-144.99;32.22;51812.22;4990958;28;20459;-65
2021/10/08 11:02:44;;;;;;;;;;;;;;;-144.99;32.26;51877.44;4989557;28;20366;-67
2021/10/08 11:05:18;;;;;;;;;;;;;;;-144.99;33.03;51926.34;5001722;28;19969;-67
2021/10/08 11:08:00;;;;;;;;;;;;;;;-144.99;33.23;51922.25;4992400;28;19994;-67
2021/10/08 11:10:26;;;;;;;;;;;;;;;-144.99;32.93;51877.44;4994126;28;20408;-67
2021/10/08 11:12:52;;;;;;;;;;;;;;;-144.99;33.11;51893.72;4976173;28;20363;-67
2021/10/08 11:15:37;;;;;;;;;;;;;;;-144.99;32.90;51922.25;4990010;28;20053;-67
2021/10/08 11:18:05;;;;;;;;;;;;;;;-144.99;32.50;51877.44;4979589;28;19979;-68
2021/10/08 11:20:47;;;;;;;;;;;;;;;-144.99;31.61;51836.66;4990792;28;20059;-67
2021/10/08 11:23:22;;;;;;;;;;;;;;;-144.99;31.50;51816.28;4991010;28;20510;-67
2021/10/08 11:25:49;;;;;;;;;;;;;;;-144.99;31.32;51828.50;4990207;28;19957;-67
2021/10/08 11:28:16;;;;;;;;;;;;;;;-144.99;31.25;51840.75;4989806;28;19955;-67
2021/10/08 11:30:42;;;;;;;;;;;;;;;-144.99;31.29;51844.81;4990310;28;20101;-67
2021/10/08 11:33:10;;;;;;;;;;;;;;;-144.99;30.70;51836.66;4989940;28;20048;-67
2021/10/08 11:35:38;;;;;;;;;;;;;;;-144.99;31.53;51942.63;4992756;28;19926;-67
2021/10/08 11:38:05;;;;;;;;;;;;;;;-144.99;32.08;51952.81;4989579;28;20349;-67
2021/10/08 11:40:33;;;;;;;;;;;;;;;-144.99;33.45;51965.06;4990250;28;19932;-67
2021/10/08 11:43:02;;;;;;;;;;;;;;;-144.99;33.48;51967.09;4989135;28;19964;-67
2021/10/08 11:45:33;;;;;;;;;;;;;;;-144.99;33.28;51926.34;4988771;28;19957;-67
2021/10/08 11:48:08;;;;;;;;;;;;;;;-144.99;32.09;51865.19;4989776;28;19986;-65
2021/10/08 11:50:46;;;;;;;;;;;;;;;-144.99;31.32;51828.50;4973852;28;20189;-67
2021/10/08 11:53:13;;;;;;;;;;;;;;;-144.99;30.53;51828.50;4995364;28;20420;-67
2021/10/08 11:55:39;;;;;;;;;;;;;;;-144.99;30.35;51804.06;4990955;28;19957;-67
2021/10/08 11:58:07;;;;;;;;;;;;;;;-144.99;29.61;51828.50;4986152;28;19952;-67
2021/10/08 12:00:35;;;;;;;;;;;;;;;-144.99;30.05;51806.09;4989883;28;19955;-67
2021/10/08 12:03:03;;;;;;;;;;;;;;;-144.99;30.10;51814.25;4987169;28;19971;-67
2021/10/08 12:05:41;;;;;;;;;;;;;;;-144.99;30.20;51824.44;4993000;28;19972;-67
2021/10/08 12:08:07;;;;;;;;;;;;;;;-144.99;29.60;51779.59;4988838;28;19958;-66
2021/10/08 12:10:33;;;;;;;;;;;;;;;-144.99;30.09;51775.53;4993973;28;20017;-67
2021/10/08 12:13:00;;;;;;;;;;;;;;;-144.99;29.26;51795.91;4996836;28;19975;-67
2021/10/08 12:15:28;;;;;;;;;;;;;;;-144.99;29.32;51785.72;4988842;28;19958;-67
2021/10/08 12:17:57;;;;;;;;;;;;;;;-144.99;29.08;51787.75;4989137;28;19951;-66
2021/10/08 12:20:24;;;;;;;;;;;;;;;-144.99;28.78;51759.22;4988413;28;19959;-67
2021/10/08 12:23:11;;;;;;;;;;;;;;;-144.99;28.32;51749.03;4987458;28;19936;-66
2021/10/08 12:25:37;;;;;;;;;;;;;;;-144.99;27.95;51744.97;4992263;28;19926;-67
2021/10/08 12:28:04;;;;;;;;;;;;;;;-144.99;28.02;51767.38;5001063;28;19944;-66
2021/10/08 12:30:30;;;;;;;;;;;;;;;-144.99;27.96;51783.69;4988766;28;19964;-67